Time;durP1;ratioP1;P1;durP2;ratioP2;P2;SDS_P1;SDS_P2;PMS_P1;PMS_P2;Temp;Humidity;BMP_temperature;BMP_pressure;BME280_temperature;BME280_humidity;BME280_pressure;Samples;Min_cycle;Max_cycle;Signal;HPM_P1;HPM_P2
2022/06/17 00:00:41;;;;;;;;;;;16.70;68.30;;;;;;5003759;28;19929;-81
2022/06/17 00:03:06;;;;;;;;;;;16.60;68.40;;;;;;5015909;28;19909;-82
2022/06/17 00:05:32;;;;;;;;;;;16.50;68.90;;;;;;5014710;28;19909;-81
2022/06/17 00:07:57;;;;;;;;;;;16.50;69.00;;;;;;5006081;28;19918;-81
2022/06/17 00:10:24;;;;;;;;;;;16.40;69.20;;;;;;5014146;28;19917;-81
2022/06/17 00:12:50;;;;;;;;;;;16.40;69.30;;;;;;5017218;28;19984;-81
2022/06/17 00:15:16;;;;;;;;;;;16.30;69.80;;;;;;5014894;28;20022;-81
2022/06/17 00:17:53;;;;;;;;;;;16.30;70.00;;;;;;4995859;28;19913;-81
2022/06/17 00:20:20;;;;;;;;;;;16.30;69.80;;;;;;5003136;28;19910;-81
2022/06/17 00:22:45;;;;;;;;;;;16.20;70.10;;;;;;5015266;28;19909;-82
2022/06/17 00:25:23;;;;;;;;;;;16.20;70.20;;;;;;5016643;28;20005;-82
2022/06/17 00:27:48;;;;;;;;;;;16.10;70.30;;;;;;5002631;28;19916;-82
2022/06/17 00:30:15;;;;;;;;;;;16.10;70.60;;;;;;5005739;28;19913;-82
2022/06/17 00:32:41;;;;;;;;;;;16.00;70.80;;;;;;5004343;28;19944;-81
2022/06/17 00:35:06;;;;;;;;;;;16.00;71.10;;;;;;5005461;28;19964;-82
2022/06/17 00:37:32;;;;;;;;;;;15.90;71.10;;;;;;5013301;28;19909;-82
2022/06/17 00:39:57;;;;;;;;;;;15.80;71.40;;;;;;5015011;28;19921;-80
2022/06/17 00:42:22;;;;;;;;;;;15.70;71.70;;;;;;4988814;28;19921;-80
2022/06/17 00:44:52;;;;;;;;;;;15.80;71.80;;;;;;5014864;28;20000;-80
2022/06/17 00:47:24;;;;;;;;;;;15.80;71.70;;;;;;5005180;28;19918;-81
2022/06/17 00:49:54;;;;;;;;;;;15.80;71.70;;;;;;5017094;28;19909;-80
2022/06/17 00:52:23;;;;;;;;;;;15.80;71.60;;;;;;5025603;28;19921;-80
2022/06/17 00:54:51;;;;;;;;;;;15.80;71.80;;;;;;4993963;28;19963;-80
2022/06/17 00:57:23;;;;;;;;;;;15.80;71.90;;;;;;5009300;28;19925;-79
2022/06/17 01:00:04;;;;;;;;;;;15.60;72.90;;;;;;4994441;28;19909;-79
2022/06/17 01:02:33;;;;;;;;;;;15.60;73.40;;;;;;5013556;28;19932;-79
2022/06/17 01:04:58;;;;;;;;;;;15.70;72.90;;;;;;5012743;28;19917;-79
2022/06/17 01:07:26;;;;;;;;;;;15.70;72.30;;;;;;5000384;28;19918;-80
2022/06/17 01:10:01;;;;;;;;;;;15.70;72.80;;;;;;5004429;28;19909;-80
2022/06/17 01:12:38;;;;;;;;;;;15.80;72.80;;;;;;5010908;28;19913;-80
2022/06/17 01:15:04;;;;;;;;;;;15.80;72.60;;;;;;4991382;28;20012;-80
2022/06/17 01:17:30;;;;;;;;;;;15.80;72.10;;;;;;4984584;28;20459;-79
2022/06/17 01:19:57;;;;;;;;;;;15.70;72.30;;;;;;5014612;28;19952;-79
2022/06/17 01:22:25;;;;;;;;;;;15.70;72.30;;;;;;5012169;28;19917;-80
2022/06/17 01:24:52;;;;;;;;;;;15.70;72.40;;;;;;4994844;28;20024;-80
2022/06/17 01:27:20;;;;;;;;;;;15.60;72.60;;;;;;4993650;28;20680;-80
2022/06/17 01:29:46;;;;;;;;;;;15.60;72.50;;;;;;4993151;28;20252;-80
2022/06/17 01:32:12;;;;;;;;;;;15.60;72.70;;;;;;5004094;28;19977;-80
2022/06/17 01:34:38;;;;;;;;;;;15.60;72.60;;;;;;4993865;28;19963;-80
2022/06/17 01:37:05;;;;;;;;;;;15.60;72.80;;;;;;4993997;28;19914;-80
2022/06/17 01:39:30;;;;;;;;;;;15.50;73.10;;;;;;5014055;28;20016;-79
2022/06/17 01:41:56;;;;;;;;;;;15.30;73.40;;;;;;5005970;28;19921;-81
2022/06/17 01:44:27;;;;;;;;;;;15.10;74.20;;;;;;5008352;28;19910;-80
2022/06/17 01:46:54;;;;;;;;;;;15.20;74.20;;;;;;5015692;28;19913;-81
2022/06/17 01:49:21;;;;;;;;;;;15.20;74.10;;;;;;5013553;28;19932;-81
2022/06/17 01:51:50;;;;;;;;;;;15.20;74.30;;;;;;5012545;28;20404;-81
2022/06/17 01:54:20;;;;;;;;;;;15.20;74.50;;;;;;4994518;28;19954;-81
2022/06/17 01:56:46;;;;;;;;;;;15.10;74.40;;;;;;5011896;28;19917;-81
2022/06/17 01:59:20;;;;;;;;;;;14.90;75.10;;;;;;4997788;28;19981;-81
2022/06/17 02:01:48;;;;;;;;;;;14.90;75.20;;;;;;5012995;28;20567;-80
2022/06/17 02:04:16;;;;;;;;;;;15.00;75.20;;;;;;5009180;28;20242;-80
2022/06/17 02:06:46;;;;;;;;;;;15.00;75.10;;;;;;5015136;28;19909;-81
2022/06/17 02:09:12;;;;;;;;;;;15.10;75.00;;;;;;5032056;28;20361;-80
2022/06/17 02:11:37;;;;;;;;;;;15.10;74.90;;;;;;5011402;28;19920;-80
2022/06/17 02:14:06;;;;;;;;;;;15.00;74.90;;;;;;4994120;28;20082;-81
2022/06/17 02:16:37;;;;;;;;;;;15.00;75.00;;;;;;5013135;28;20349;-80
2022/06/17 02:19:03;;;;;;;;;;;15.10;74.80;;;;;;5006453;28;19996;-80
2022/06/17 02:21:39;;;;;;;;;;;15.00;75.10;;;;;;4994236;28;19913;-80
2022/06/17 02:24:05;;;;;;;;;;;15.00;75.90;;;;;;5011169;28;19920;-80
2022/06/17 02:26:33;;;;;;;;;;;15.00;75.80;;;;;;5015209;28;19910;-80
2022/06/17 02:29:00;;;;;;;;;;;15.10;75.80;;;;;;5015292;28;19913;-80
2022/06/17 02:31:27;;;;;;;;;;;15.10;75.80;;;;;;5016408;28;19924;-80
2022/06/17 02:33:53;;;;;;;;;;;15.10;75.70;;;;;;5019408;28;19909;-80
2022/06/17 02:36:23;;;;;;;;;;;15.10;75.50;;;;;;5017432;28;19929;-80
2022/06/17 02:38:49;;;;;;;;;;;15.10;75.40;;;;;;4993190;28;19957;-80
2022/06/17 02:41:19;;;;;;;;;;;15.10;75.60;;;;;;5008611;28;19979;-80
2022/06/17 02:43:47;;;;;;;;;;;15.00;75.40;;;;;;5016886;28;20372;-81
2022/06/17 02:46:25;;;;;;;;;;;14.90;75.30;;;;;;5017432;28;19945;-81
2022/06/17 02:48:53;;;;;;;;;;;14.80;75.50;;;;;;5019538;28;20331;-81
2022/06/17 02:51:20;;;;;;;;;;;14.80;75.70;;;;;;5017065;28;19909;-80
2022/06/17 02:53:46;;;;;;;;;;;14.80;75.70;;;;;;5012060;28;19934;-80
2022/06/17 02:56:16;;;;;;;;;;;14.80;75.80;;;;;;5003567;28;19925;-80
2022/06/17 02:58:44;;;;;;;;;;;14.70;76.10;;;;;;5002429;28;19910;-81
2022/06/17 03:01:15;;;;;;;;;;;14.70;76.20;;;;;;5014609;28;19917;-80
2022/06/17 03:03:41;;;;;;;;;;;14.70;76.40;;;;;;5014552;28;19910;-80
2022/06/17 03:06:11;;;;;;;;;;;14.60;76.30;;;;;;5014292;28;19966;-81
2022/06/17 03:08:38;;;;;;;;;;;14.50;76.40;;;;;;5003276;28;20079;-81
2022/06/17 03:11:04;;;;;;;;;;;14.50;76.60;;;;;;4997131;28;20008;-80
2022/06/17 03:13:31;;;;;;;;;;;14.60;76.60;;;;;;5014190;28;19931;-80
2022/06/17 03:15:58;;;;;;;;;;;14.60;76.60;;;;;;5015194;28;19921;-80
2022/06/17 03:18:24;;;;;;;;;;;14.60;76.60;;;;;;5003382;28;19913;-80
2022/06/17 03:20:50;;;;;;;;;;;14.60;76.80;;;;;;5014532;28;19967;-80
2022/06/17 03:23:20;;;;;;;;;;;14.60;76.70;;;;;;5024626;28;19917;-81
2022/06/17 03:25:47;;;;;;;;;;;14.50;76.60;;;;;;5009716;28;20283;-81
2022/06/17 03:28:14;;;;;;;;;;;14.50;76.90;;;;;;4998966;28;19936;-81
2022/06/17 03:30:46;;;;;;;;;;;14.60;76.60;;;;;;5014730;28;19913;-80
2022/06/17 03:33:20;;;;;;;;;;;14.50;76.70;;;;;;5001715;28;19925;-80
2022/06/17 03:35:47;;;;;;;;;;;14.50;76.80;;;;;;5032916;28;19913;-80
2022/06/17 03:38:28;;;;;;;;;;;14.60;76.70;;;;;;5022959;28;20447;-80
2022/06/17 03:40:55;;;;;;;;;;;14.60;76.60;;;;;;4998493;28;20000;-80
2022/06/17 03:43:28;;;;;;;;;;;14.60;77.10;;;;;;5019400;28;20099;-80
2022/06/17 03:46:04;;;;;;;;;;;14.50;76.90;;;;;;5008322;28;20280;-80
2022/06/17 03:48:42;;;;;;;;;;;14.60;76.90;;;;;;5017039;28;19909;-80
2022/06/17 03:51:11;;;;;;;;;;;14.60;76.90;;;;;;4997899;28;19932;-80
2022/06/17 03:53:37;;;;;;;;;;;14.60;77.00;;;;;;4997849;28;19925;-81
2022/06/17 03:56:22;;;;;;;;;;;14.70;77.20;;;;;;5006180;28;19914;-80
2022/06/17 03:58:48;;;;;;;;;;;14.60;77.30;;;;;;5012261;28;20303;-80
2022/06/17 04:01:16;;;;;;;;;;;14.80;77.30;;;;;;5011317;28;19932;-80
2022/06/17 04:03:44;;;;;;;;;;;14.80;77.40;;;;;;5014772;28;20048;-81
2022/06/17 04:06:15;;;;;;;;;;;14.90;77.30;;;;;;5014101;28;19914;-80
2022/06/17 04:08:57;;;;;;;;;;;15.00;77.30;;;;;;5002837;28;19917;-80
2022/06/17 04:11:34;;;;;;;;;;;15.10;77.30;;;;;;4976714;28;20353;-80
2022/06/17 04:14:01;;;;;;;;;;;15.10;77.60;;;;;;4977400;28;19917;-79
2022/06/17 04:16:36;;;;;;;;;;;15.20;77.50;;;;;;4988498;28;20021;-80
2022/06/17 04:19:19;;;;;;;;;;;15.30;77.10;;;;;;5011230;28;20300;-80
2022/06/17 04:21:44;;;;;;;;;;;15.50;77.00;;;;;;4979526;28;19937;-79
2022/06/17 04:24:14;;;;;;;;;;;15.60;76.40;;;;;;5022021;28;19922;-79
2022/06/17 04:26:42;;;;;;;;;;;15.60;76.70;;;;;;4996219;28;19909;-79
2022/06/17 04:29:11;;;;;;;;;;;15.70;76.30;;;;;;5000393;28;19909;-79
2022/06/17 04:31:37;;;;;;;;;;;15.80;76.70;;;;;;5013726;28;19921;-79
2022/06/17 04:34:14;;;;;;;;;;;15.90;76.30;;;;;;4993489;28;19917;-79
2022/06/17 04:36:43;;;;;;;;;;;15.90;76.20;;;;;;4994655;28;19924;-79
2022/06/17 04:39:28;;;;;;;;;;;16.00;75.80;;;;;;5011975;28;19925;-79
2022/06/17 04:41:55;;;;;;;;;;;16.10;75.50;;;;;;4999029;28;19917;-79
2022/06/17 04:44:21;;;;;;;;;;;16.20;75.60;;;;;;5002144;28;19913;-80
2022/06/17 04:46:53;;;;;;;;;;;16.20;75.90;;;;;;5012754;28;20000;-80
2022/06/17 04:49:20;;;;;;;;;;;16.20;76.00;;;;;;5019124;28;19917;-80
2022/06/17 04:51:46;;;;;;;;;;;16.30;75.00;;;;;;4995591;28;19921;-80
2022/06/17 04:54:11;;;;;;;;;;;16.30;74.50;;;;;;4998512;28;19913;-80
2022/06/17 04:56:40;;;;;;;;;;;16.20;74.50;;;;;;5012059;28;19974;-80
2022/06/17 04:59:16;;;;;;;;;;;16.10;74.60;;;;;;4994456;28;19910;-80
2022/06/17 05:01:42;;;;;;;;;;;16.10;73.50;;;;;;4995352;28;19916;-80
2022/06/17 05:04:07;;;;;;;;;;;16.10;74.20;;;;;;5005357;28;19914;-81
2022/06/17 05:06:33;;;;;;;;;;;16.10;74.50;;;;;;5003460;28;19937;-80
2022/06/17 05:09:05;;;;;;;;;;;16.20;74.30;;;;;;5015783;28;19913;-80
2022/06/17 05:11:36;;;;;;;;;;;16.30;72.70;;;;;;5015298;28;19913;-80
2022/06/17 05:14:13;;;;;;;;;;;16.40;72.40;;;;;;5014080;28;19920;-81
2022/06/17 05:16:38;;;;;;;;;;;16.40;71.60;;;;;;4996697;28;19968;-80
2022/06/17 05:19:04;;;;;;;;;;;16.50;72.00;;;;;;5012133;28;19914;-81
2022/06/17 05:21:29;;;;;;;;;;;16.70;70.70;;;;;;5012228;28;19967;-81
2022/06/17 05:23:56;;;;;;;;;;;16.80;70.10;;;;;;5013925;28;20005;-80
2022/06/17 05:26:21;;;;;;;;;;;17.00;69.40;;;;;;5012537;28;19928;-80
2022/06/17 05:28:47;;;;;;;;;;;17.10;69.30;;;;;;5010943;28;19936;-80
2022/06/17 05:31:18;;;;;;;;;;;17.10;68.30;;;;;;5012876;28;19920;-80
2022/06/17 05:33:43;;;;;;;;;;;17.20;68.10;;;;;;4992577;28;19934;-80
2022/06/17 05:36:09;;;;;;;;;;;17.20;67.40;;;;;;5011951;28;19944;-79
2022/06/17 05:38:34;;;;;;;;;;;17.30;67.20;;;;;;5001802;28;19914;-80
2022/06/17 05:40:59;;;;;;;;;;;17.50;66.70;;;;;;5012241;28;19917;-79
2022/06/17 05:43:25;;;;;;;;;;;17.60;66.30;;;;;;5010092;28;19944;-79
2022/06/17 05:45:50;;;;;;;;;;;17.60;65.50;;;;;;5005481;28;19917;-80
2022/06/17 05:48:16;;;;;;;;;;;17.90;64.90;;;;;;5013071;28;20417;-80
2022/06/17 05:50:41;;;;;;;;;;;18.20;64.30;;;;;;5001622;28;20029;-80
2022/06/17 05:53:08;;;;;;;;;;;18.60;63.90;;;;;;4993247;28;19917;-81
2022/06/17 05:55:34;;;;;;;;;;;19.00;63.60;;;;;;5000708;28;19921;-80
2022/06/17 05:58:00;;;;;;;;;;;19.10;60.80;;;;;;5011217;28;19910;-80
2022/06/17 06:00:26;;;;;;;;;;;19.20;60.90;;;;;;4996003;28;20059;-80
2022/06/17 06:02:54;;;;;;;;;;;19.40;60.70;;;;;;4992350;28;19909;-80
2022/06/17 06:05:21;;;;;;;;;;;19.50;60.70;;;;;;5016273;28;20411;-79
2022/06/17 06:07:47;;;;;;;;;;;19.60;60.90;;;;;;5005947;28;19921;-80
2022/06/17 06:10:12;;;;;;;;;;;19.60;60.90;;;;;;5017704;28;19941;-80
2022/06/17 06:12:53;;;;;;;;;;;19.50;61.50;;;;;;5015053;28;20296;-80
2022/06/17 06:15:19;;;;;;;;;;;19.40;61.40;;;;;;5003736;28;19917;-80
2022/06/17 06:17:45;;;;;;;;;;;19.50;60.00;;;;;;5017831;28;20016;-80
2022/06/17 06:20:12;;;;;;;;;;;19.50;60.90;;;;;;5017533;28;19956;-80
2022/06/17 06:22:37;;;;;;;;;;;19.60;59.40;;;;;;5011010;28;19922;-80
2022/06/17 06:25:02;;;;;;;;;;;19.90;58.90;;;;;;4995172;28;19921;-80
2022/06/17 06:27:28;;;;;;;;;;;20.00;58.90;;;;;;5003944;28;20339;-80
2022/06/17 06:29:53;;;;;;;;;;;20.10;57.00;;;;;;5017567;28;19910;-80
2022/06/17 06:32:19;;;;;;;;;;;20.10;57.60;;;;;;5014412;28;19921;-80
2022/06/17 06:34:45;;;;;;;;;;;20.30;57.20;;;;;;4996584;28;19959;-80
2022/06/17 06:37:12;;;;;;;;;;;20.40;57.90;;;;;;4997912;28;19925;-80
2022/06/17 06:39:38;;;;;;;;;;;20.50;56.10;;;;;;5017513;28;19913;-79
2022/06/17 06:42:03;;;;;;;;;;;20.60;56.20;;;;;;4999571;28;20000;-80
2022/06/17 06:44:29;;;;;;;;;;;20.70;55.70;;;;;;5018775;28;19920;-79
2022/06/17 06:46:54;;;;;;;;;;;20.80;56.00;;;;;;5012645;28;19910;-81
2022/06/17 06:49:20;;;;;;;;;;;20.90;55.00;;;;;;4984450;28;20257;-81
2022/06/17 06:51:45;;;;;;;;;;;21.10;53.90;;;;;;4982557;28;20307;-81
2022/06/17 06:54:10;;;;;;;;;;;21.00;54.50;;;;;;5007085;28;20012;-82
2022/06/17 06:56:36;;;;;;;;;;;21.10;54.70;;;;;;5011887;28;19925;-81
2022/06/17 06:59:01;;;;;;;;;;;21.10;56.00;;;;;;5008030;28;19969;-79
2022/06/17 07:01:27;;;;;;;;;;;20.90;56.50;;;;;;5023694;28;19917;-80
2022/06/17 07:03:52;;;;;;;;;;;20.70;55.10;;;;;;5009120;28;19921;-82
2022/06/17 07:06:18;;;;;;;;;;;20.60;55.90;;;;;;5017008;28;19913;-83
2022/06/17 07:08:43;;;;;;;;;;;20.60;55.70;;;;;;5013503;28;19913;-83
2022/06/17 07:11:09;;;;;;;;;;;20.60;55.30;;;;;;4999863;28;19968;-82
2022/06/17 07:13:35;;;;;;;;;;;20.60;56.50;;;;;;4998705;28;19925;-80
2022/06/17 07:16:06;;;;;;;;;;;20.70;56.30;;;;;;5017296;28;19917;-83
2022/06/17 07:18:32;;;;;;;;;;;20.70;56.10;;;;;;4999358;28;19913;-80
2022/06/17 07:21:00;;;;;;;;;;;20.80;55.80;;;;;;5017560;28;19945;-84
2022/06/17 07:23:29;;;;;;;;;;;20.80;56.20;;;;;;4996807;28;19988;-84
2022/06/17 07:25:56;;;;;;;;;;;20.90;55.20;;;;;;5000308;28;19936;-80
2022/06/17 07:28:22;;;;;;;;;;;20.90;55.00;;;;;;4994059;28;19914;-82
2022/06/17 07:30:49;;;;;;;;;;;20.90;55.10;;;;;;4987205;28;19910;-83
2022/06/17 07:33:15;;;;;;;;;;;20.90;55.00;;;;;;5007722;28;20007;-81
2022/06/17 07:35:42;;;;;;;;;;;21.10;54.10;;;;;;5026289;28;20034;-83
2022/06/17 07:41:06;;;;;;;;;;;21.30;53.90;;;;;;5016408;28;19980;-83
2022/06/17 07:43:32;;;;;;;;;;;21.30;53.20;;;;;;4998276;28;19949;-84
2022/06/17 07:45:58;;;;;;;;;;;21.30;53.00;;;;;;5014872;28;19925;-85
2022/06/17 07:48:24;;;;;;;;;;;21.30;52.90;;;;;;4999821;28;20357;-82
2022/06/17 07:50:49;;;;;;;;;;;21.40;53.80;;;;;;4996636;28;20004;-83
2022/06/17 07:53:16;;;;;;;;;;;21.50;53.90;;;;;;4997820;28;19920;-82
2022/06/17 07:55:42;;;;;;;;;;;21.60;52.10;;;;;;5016161;28;19917;-83
2022/06/17 07:58:09;;;;;;;;;;;21.70;51.80;;;;;;5025143;28;20403;-83
2022/06/17 08:00:39;;;;;;;;;;;21.90;52.70;;;;;;5003963;28;19948;-80
2022/06/17 08:03:04;;;;;;;;;;;22.00;51.20;;;;;;5007059;28;19914;-82
2022/06/17 08:05:30;;;;;;;;;;;22.00;51.70;;;;;;5001705;28;19920;-80
2022/06/17 08:07:56;;;;;;;;;;;22.00;51.50;;;;;;5010926;28;20393;-80
2022/06/17 08:10:24;;;;;;;;;;;21.90;51.50;;;;;;5011292;28;19920;-79
2022/06/17 08:12:49;;;;;;;;;;;22.10;52.50;;;;;;5014119;28;19925;-81
2022/06/17 08:15:15;;;;;;;;;;;22.10;51.20;;;;;;5011728;28;19918;-83
2022/06/17 08:17:41;;;;;;;;;;;22.30;50.80;;;;;;5013596;28;19917;-81
2022/06/17 08:20:12;;;;;;;;;;;22.50;50.30;;;;;;4998955;28;19917;-80
2022/06/17 08:22:38;;;;;;;;;;;22.60;49.40;;;;;;5015106;28;19914;-80
2022/06/17 08:25:03;;;;;;;;;;;22.80;49.00;;;;;;5016382;28;20315;-81
2022/06/17 08:27:29;;;;;;;;;;;22.70;48.40;;;;;;5007962;28;19921;-81
2022/06/17 08:29:54;;;;;;;;;;;22.60;48.50;;;;;;5007508;28;20364;-82
2022/06/17 08:35:04;;;;;;;;;;;22.60;48.60;;;;;;4996949;28;19920;-82
2022/06/17 08:37:30;;;;;;;;;;;22.70;47.70;;;;;;4996605;28;19917;-84
2022/06/17 08:39:56;;;;;;;;;;;22.70;47.90;;;;;;5013943;28;19917;-82
2022/06/17 08:42:27;;;;;;;;;;;22.80;49.90;;;;;;5008013;28;19936;-83
2022/06/17 08:45:01;;;;;;;;;;;22.80;49.00;;;;;;5011204;28;20380;-82
2022/06/17 08:47:41;;;;;;;;;;;22.80;47.90;;;;;;5013501;28;20033;-82
2022/06/17 08:50:17;;;;;;;;;;;22.80;48.00;;;;;;5000959;28;19996;-83
2022/06/17 08:52:57;;;;;;;;;;;22.90;47.20;;;;;;5017838;22;19960;-79
2022/06/17 08:55:30;;;;;;;;;;;23.00;47.10;;;;;;5020680;28;19925;-79
2022/06/17 08:57:58;;;;;;;;;;;23.00;48.30;;;;;;5010335;28;19936;-80
2022/06/17 09:00:37;;;;;;;;;;;23.10;47.50;;;;;;5024021;28;19913;-79
2022/06/17 09:03:02;;;;;;;;;;;23.10;47.80;;;;;;5014084;28;20001;-79
2022/06/17 09:05:35;;;;;;;;;;;23.20;48.30;;;;;;5051884;28;19956;-79
2022/06/17 09:08:03;;;;;;;;;;;23.20;47.60;;;;;;5043850;28;19921;-79
2022/06/17 09:10:53;;;;;;;;;;;23.50;47.40;;;;;;5029771;28;20315;-81
2022/06/17 09:13:35;;;;;;;;;;;23.50;47.80;;;;;;4993503;28;19913;-81
2022/06/17 09:16:09;;;;;;;;;;;23.50;48.40;;;;;;5031056;28;20018;-79
2022/06/17 09:18:40;;;;;;;;;;;23.60;49.30;;;;;;5041493;28;20029;-79
2022/06/17 09:21:11;;;;;;;;;;;23.70;48.30;;;;;;5050121;28;19944;-79
2022/06/17 09:23:38;;;;;;;;;;;23.80;47.80;;;;;;5050694;28;19921;-79
2022/06/17 09:26:07;;;;;;;;;;;23.90;47.40;;;;;;5032972;28;19952;-80
2022/06/17 09:28:36;;;;;;;;;;;23.90;45.90;;;;;;5027795;28;19957;-80
2022/06/17 09:31:05;;;;;;;;;;;23.90;46.30;;;;;;5032854;28;19963;-80
2022/06/17 09:33:33;;;;;;;;;;;23.80;46.50;;;;;;5030442;28;19927;-79
2022/06/17 09:36:08;;;;;;;;;;;23.70;46.90;;;;;;5046363;28;19917;-79
2022/06/17 09:38:40;;;;;;;;;;;23.80;47.30;;;;;;5030182;28;20303;-79
2022/06/17 09:41:28;;;;;;;;;;;23.70;48.20;;;;;;5048700;28;19916;-79
2022/06/17 09:43:56;;;;;;;;;;;23.70;47.00;;;;;;5039334;28;19967;-79
2022/06/17 09:46:32;;;;;;;;;;;23.60;47.60;;;;;;5032669;28;20252;-78
2022/06/17 09:49:07;;;;;;;;;;;23.60;48.40;;;;;;5030266;28;20300;-79
2022/06/17 09:51:36;;;;;;;;;;;23.60;48.80;;;;;;5039392;28;19943;-80
2022/06/17 09:54:10;;;;;;;;;;;23.60;47.80;;;;;;5020613;28;20003;-79
2022/06/17 09:56:45;;;;;;;;;;;23.70;45.40;;;;;;5026238;28;19933;-79
2022/06/17 09:59:19;;;;;;;;;;;23.80;44.20;;;;;;5046625;28;19994;-80
2022/06/17 10:01:46;;;;;;;;;;;24.00;45.00;;;;;;5021564;28;19917;-79
2022/06/17 10:04:12;;;;;;;;;;;24.00;45.30;;;;;;5040635;28;19909;-79
2022/06/17 10:06:56;;;;;;;;;;;24.10;47.20;;;;;;5035184;28;20342;-79
2022/06/17 10:09:22;;;;;;;;;;;24.10;46.20;;;;;;5044967;28;19913;-79
2022/06/17 10:11:52;;;;;;;;;;;24.00;46.50;;;;;;5070295;28;19923;-80
2022/06/17 10:14:41;;;;;;;;;;;24.30;44.60;;;;;;5052144;28;19932;-79
2022/06/17 10:19:54;;;;;;;;;;;24.20;43.90;;;;;;5048354;28;19916;-79
2022/06/17 10:22:27;;;;;;;;;;;24.10;44.70;;;;;;5018005;28;19913;-80
2022/06/17 10:25:12;;;;;;;;;;;24.20;45.80;;;;;;5033889;28;19955;-79
2022/06/17 10:27:59;;;;;;;;;;;24.40;45.20;;;;;;5017835;28;20027;-79
2022/06/17 10:30:32;;;;;;;;;;;24.40;43.60;;;;;;5033216;28;19913;-79
2022/06/17 10:32:57;;;;;;;;;;;24.40;43.10;;;;;;5041127;28;20375;-80
2022/06/17 10:35:28;;;;;;;;;;;24.40;44.10;;;;;;5026237;28;19920;-80
2022/06/17 10:37:55;;;;;;;;;;;24.60;42.90;;;;;;5041568;28;19916;-80
2022/06/17 10:40:22;;;;;;;;;;;24.70;41.50;;;;;;5023307;28;19962;-78
2022/06/17 10:42:48;;;;;;;;;;;24.70;41.30;;;;;;5039497;28;19908;-78
2022/06/17 10:45:15;;;;;;;;;;;24.80;42.60;;;;;;5050976;28;19909;-79
2022/06/17 10:47:50;;;;;;;;;;;25.00;41.00;;;;;;5045727;28;20360;-79
2022/06/17 10:50:23;;;;;;;;;;;25.10;42.30;;;;;;5050799;28;19919;-78
2022/06/17 10:52:56;;;;;;;;;;;25.10;42.30;;;;;;5038887;28;19920;-78
2022/06/17 10:55:27;;;;;;;;;;;25.20;41.50;;;;;;5039421;28;19927;-77
2022/06/17 10:58:11;;;;;;;;;;;25.10;41.10;;;;;;5037565;28;19924;-78
2022/06/17 11:00:45;;;;;;;;;;;25.10;40.90;;;;;;5041693;28;19917;-78
2022/06/17 11:03:19;;;;;;;;;;;25.50;41.00;;;;;;5049124;28;19917;-78
2022/06/17 11:05:51;;;;;;;;;;;25.80;40.80;;;;;;5017081;28;19915;-79
2022/06/17 11:08:21;;;;;;;;;;;25.90;39.90;;;;;;5050894;28;19963;-78
2022/06/17 11:10:51;;;;;;;;;;;25.90;38.70;;;;;;5046731;28;19983;-79
2022/06/17 11:13:18;;;;;;;;;;;26.00;39.20;;;;;;5040476;28;19919;-78
2022/06/17 11:15:56;;;;;;;;;;;26.10;38.40;;;;;;5049181;28;20015;-78
2022/06/17 11:18:32;;;;;;;;;;;26.10;38.30;;;;;;5034174;28;20008;-79
2022/06/17 11:21:11;;;;;;;;;;;26.40;38.80;;;;;;5051353;28;19954;-79
2022/06/17 11:23:44;;;;;;;;;;;26.50;37.70;;;;;;5043473;28;19909;-78
2022/06/17 11:26:21;;;;;;;;;;;26.50;35.80;;;;;;5051839;28;20326;-78
2022/06/17 11:28:51;;;;;;;;;;;26.60;36.50;;;;;;5051449;28;19909;-78
2022/06/17 11:31:20;;;;;;;;;;;26.70;37.20;;;;;;5045091;28;20011;-79
2022/06/17 11:33:52;;;;;;;;;;;26.80;35.80;;;;;;5024458;28;19912;-78
2022/06/17 11:36:19;;;;;;;;;;;27.00;36.40;;;;;;5035105;28;19967;-78
2022/06/17 11:38:45;;;;;;;;;;;27.00;36.30;;;;;;5043433;28;20043;-78
2022/06/17 11:41:17;;;;;;;;;;;27.30;36.70;;;;;;5019889;28;19948;-78
2022/06/17 11:43:43;;;;;;;;;;;27.40;37.20;;;;;;5033628;28;19951;-78
2022/06/17 11:46:10;;;;;;;;;;;27.30;36.70;;;;;;5044191;28;19913;-78
2022/06/17 11:48:40;;;;;;;;;;;27.30;35.90;;;;;;5048647;28;19977;-77
2022/06/17 11:51:07;;;;;;;;;;;27.40;36.80;;;;;;5053865;28;19909;-77
2022/06/17 11:53:41;;;;;;;;;;;27.50;37.00;;;;;;5050943;28;20386;-78
2022/06/17 11:56:07;;;;;;;;;;;27.80;36.40;;;;;;5045451;28;20053;-78
2022/06/17 11:58:33;;;;;;;;;;;28.00;36.40;;;;;;5051281;28;20386;-77
2022/06/17 12:01:10;;;;;;;;;;;28.10;36.70;;;;;;5018048;28;19938;-78
2022/06/17 12:03:43;;;;;;;;;;;27.90;36.50;;;;;;5033499;28;19912;-78
2022/06/17 12:06:23;;;;;;;;;;;27.80;37.40;;;;;;5031046;28;19913;-77
2022/06/17 12:09:03;;;;;;;;;;;27.90;37.30;;;;;;5032479;28;19913;-77
2022/06/17 12:11:58;;;;;;;;;;;28.00;36.10;;;;;;5049807;28;20007;-78
2022/06/17 12:14:29;;;;;;;;;;;28.00;35.80;;;;;;5033252;28;19963;-77
2022/06/17 12:16:55;;;;;;;;;;;28.10;36.60;;;;;;5023520;28;19917;-78
2022/06/17 12:19:21;;;;;;;;;;;28.00;36.60;;;;;;5044403;28;19971;-77
2022/06/17 12:21:56;;;;;;;;;;;28.00;35.70;;;;;;5051551;28;19924;-78
2022/06/17 12:24:51;;;;;;;;;;;28.40;35.00;;;;;;5030989;28;19913;-78
2022/06/17 12:27:20;;;;;;;;;;;28.30;34.10;;;;;;5020864;28;19967;-78
2022/06/17 12:29:45;;;;;;;;;;;28.10;35.50;;;;;;5047992;28;19908;-77
2022/06/17 12:32:43;;;;;;;;;;;27.80;32.40;;;;;;5051826;28;19920;-78
2022/06/17 12:35:17;;;;;;;;;;;27.90;34.50;;;;;;5001680;28;19947;-78
2022/06/17 12:37:50;;;;;;;;;;;28.20;32.00;;;;;;5034447;28;19916;-77
2022/06/17 12:40:24;;;;;;;;;;;28.10;32.10;;;;;;5041105;28;19923;-77
2022/06/17 12:42:59;;;;;;;;;;;28.10;32.40;;;;;;5049865;28;19909;-78
2022/06/17 12:45:38;;;;;;;;;;;28.20;32.80;;;;;;5051747;28;19909;-78
2022/06/17 12:48:07;;;;;;;;;;;28.30;33.20;;;;;;5047460;28;19983;-78
2022/06/17 12:53:20;;;;;;;;;;;28.30;33.80;;;;;;5044377;28;19920;-77
2022/06/17 12:56:04;;;;;;;;;;;28.20;33.10;;;;;;5038355;28;19924;-76
2022/06/17 12:58:48;;;;;;;;;;;28.20;34.20;;;;;;5050789;28;20390;-78
2022/06/17 13:01:17;;;;;;;;;;;27.90;34.20;;;;;;5036900;28;19913;-77
2022/06/17 13:03:51;;;;;;;;;;;27.90;34.30;;;;;;5044096;28;19995;-77
2022/06/17 13:06:37;;;;;;;;;;;27.60;35.50;;;;;;5048193;28;19917;-78
2022/06/17 13:09:09;;;;;;;;;;;27.60;35.90;;;;;;5024064;28;19909;-78
2022/06/17 13:11:34;;;;;;;;;;;27.60;34.30;;;;;;5031485;28;19956;-78
2022/06/17 13:14:29;;;;;;;;;;;27.60;34.70;;;;;;5014063;28;20307;-80
2022/06/17 13:17:01;;;;;;;;;;;27.60;34.10;;;;;;5018452;28;19979;-77
2022/06/17 13:19:38;;;;;;;;;;;27.80;33.60;;;;;;5050740;28;20234;-77
2022/06/17 13:22:03;;;;;;;;;;;27.80;33.90;;;;;;5031012;28;20280;-77
2022/06/17 13:24:48;;;;;;;;;;;27.80;34.60;;;;;;5033155;28;19908;-78
2022/06/17 13:27:17;;;;;;;;;;;27.70;36.00;;;;;;5041037;28;19913;-78
2022/06/17 13:29:52;;;;;;;;;;;27.60;34.80;;;;;;5049494;28;19923;-77
2022/06/17 13:32:24;;;;;;;;;;;27.60;33.70;;;;;;5047134;28;19975;-77
2022/06/17 13:35:05;;;;;;;;;;;27.80;33.60;;;;;;5050585;28;19913;-78
2022/06/17 13:37:33;;;;;;;;;;;27.80;35.70;;;;;;5048636;28;19917;-78
2022/06/17 13:40:04;;;;;;;;;;;27.90;34.10;;;;;;5050349;28;19916;-78
2022/06/17 13:42:31;;;;;;;;;;;27.90;32.10;;;;;;5049863;28;19909;-77
2022/06/17 13:45:12;;;;;;;;;;;27.80;32.50;;;;;;5048872;28;19912;-77
2022/06/17 13:47:57;;;;;;;;;;;28.00;32.70;;;;;;5049279;28;19951;-77
2022/06/17 13:50:28;;;;;;;;;;;28.10;31.60;;;;;;5046300;28;19920;-77
2022/06/17 13:52:56;;;;;;;;;;;28.00;32.30;;;;;;5030806;28;19913;-77
2022/06/17 13:55:41;;;;;;;;;;;28.00;32.40;;;;;;5033266;28;20006;-77
2022/06/17 13:58:15;;;;;;;;;;;28.10;33.00;;;;;;5027409;28;19996;-78
2022/06/17 14:00:43;;;;;;;;;;;28.30;31.70;;;;;;5025465;28;19929;-78
2022/06/17 14:03:11;;;;;;;;;;;28.30;31.50;;;;;;5035683;28;19973;-77
2022/06/17 14:05:36;;;;;;;;;;;28.50;30.10;;;;;;5052832;28;19912;-78
2022/06/17 14:08:02;;;;;;;;;;;28.50;30.00;;;;;;5035668;28;20008;-76
2022/06/17 14:10:29;;;;;;;;;;;28.60;30.30;;;;;;5036528;28;19909;-76
2022/06/17 14:12:55;;;;;;;;;;;28.70;29.70;;;;;;4984876;28;19913;-76
2022/06/17 14:15:34;;;;;;;;;;;28.60;30.50;;;;;;5010354;28;20210;-77
2022/06/17 14:18:02;;;;;;;;;;;28.80;29.30;;;;;;4994348;28;19912;-77
2022/06/17 14:20:31;;;;;;;;;;;28.70;29.20;;;;;;5010989;28;19935;-76
2022/06/17 14:22:59;;;;;;;;;;;28.70;29.20;;;;;;5003183;28;19915;-76
2022/06/17 14:25:27;;;;;;;;;;;28.70;29.70;;;;;;5016065;28;20040;-76
2022/06/17 14:27:55;;;;;;;;;;;28.60;29.80;;;;;;5012618;28;20126;-76
2022/06/17 14:30:20;;;;;;;;;;;28.50;30.20;;;;;;5017174;28;19912;-77
2022/06/17 14:32:53;;;;;;;;;;;28.60;30.20;;;;;;5003206;28;20158;-78
2022/06/17 14:35:24;;;;;;;;;;;28.70;30.20;;;;;;5003274;28;20157;-76
2022/06/17 14:37:51;;;;;;;;;;;28.60;30.10;;;;;;5001118;28;20027;-76
2022/06/17 14:40:19;;;;;;;;;;;28.60;30.70;;;;;;4990867;28;20476;-76
2022/06/17 14:43:03;;;;;;;;;;;28.70;31.50;;;;;;5011573;28;19913;-76